Time;durP1;ratioP1;P1;durP2;ratioP2;P2;SDS_P1;SDS_P2;PMS_P1;PMS_P2;Temp;Humidity;BMP_temperature;BMP_pressure;BME280_temperature;BME280_humidity;BME280_pressure;Samples;Min_cycle;Max_cycle;Signal;HPM_P1;HPM_P2
2021/01/27 00:00:24;;;;;;;7.93;4.70;;;1.50;99.90;;;;;;4991465;28;20029;-91
2021/01/27 00:02:50;;;;;;;13.38;6.65;;;1.50;99.90;;;;;;4978516;28;20022;-90
2021/01/27 00:05:20;;;;;;;11.05;5.60;;;1.40;99.90;;;;;;4977874;28;20027;-91
2021/01/27 00:07:46;;;;;;;11.25;5.93;;;2.00;99.90;;;;;;4990729;28;20038;-92
2021/01/27 00:10:14;;;;;;;8.70;5.10;;;1.40;99.90;;;;;;4984381;28;20038;-92
2021/01/27 00:12:40;;;;;;;9.73;6.15;;;1.30;99.90;;;;;;4999354;28;20049;-91
2021/01/27 00:15:13;;;;;;;9.73;6.00;;;1.40;99.90;;;;;;5006316;28;20027;-92
2021/01/27 00:17:44;;;;;;;8.20;5.82;;;1.50;99.90;;;;;;4999471;28;20081;-92
2021/01/27 00:20:13;;;;;;;;;;;1.50;99.90;;;;;;4999811;28;20026;-92
2021/01/27 00:22:39;;;;;;;11.05;6.22;;;1.50;99.90;;;;;;5007246;28;19905;-92
2021/01/27 00:25:08;;;;;;;7.90;5.28;;;1.40;99.90;;;;;;4979821;28;20424;-92
2021/01/27 00:27:33;;;;;;;9.68;5.57;;;1.00;99.90;;;;;;4988251;28;20030;-91
2021/01/27 00:30:05;;;;;;;9.15;5.47;;;2.50;99.90;;;;;;4991896;28;20080;-91
2021/01/27 00:32:36;;;;;;;9.45;5.05;;;1.50;99.90;;;;;;5002821;28;20026;-91
2021/01/27 00:35:05;;;;;;;8.95;5.50;;;1.60;99.90;;;;;;4978130;28;20037;-90
2021/01/27 00:37:31;;;;;;;9.70;6.22;;;1.60;99.90;;;;;;5015682;28;20030;-90
2021/01/27 00:39:56;;;;;;;9.35;6.32;;;1.60;99.90;;;;;;4981008;28;20073;-89
2021/01/27 00:42:23;;;;;;;11.35;6.00;;;1.60;99.90;;;;;;4997737;28;20049;-89
2021/01/27 00:44:49;;;;;;;12.77;6.45;;;1.60;99.90;;;;;;4997298;28;20058;-87
2021/01/27 00:47:15;;;;;;;12.82;7.07;;;1.60;99.90;;;;;;4976841;28;20105;-88
2021/01/27 00:49:40;;;;;;;10.68;6.72;;;1.90;99.90;;;;;;4984681;28;20080;-89
2021/01/27 00:52:06;;;;;;;8.48;5.65;;;1.80;99.90;;;;;;4983900;28;20154;-89
2021/01/27 00:54:32;;;;;;;10.43;6.32;;;1.80;99.90;;;;;;4970722;28;20039;-91
2021/01/27 00:56:59;;;;;;;9.95;6.60;;;1.60;99.90;;;;;;4979187;28;20110;-92
2021/01/27 00:59:24;;;;;;;14.07;6.85;;;1.80;99.90;;;;;;4988218;28;20396;-92
2021/01/27 01:01:50;;;;;;;9.30;6.18;;;2.30;99.90;;;;;;4990388;28;20022;-92
2021/01/27 01:04:20;;;;;;;13.77;6.97;;;1.90;99.90;;;;;;4979295;28;20046;-89
2021/01/27 01:06:48;;;;;;;9.93;6.20;;;1.90;99.90;;;;;;4982451;28;20031;-89
2021/01/27 01:09:13;;;;;;;8.52;5.85;;;2.60;99.90;;;;;;4965008;28;20034;-89
2021/01/27 01:11:39;;;;;;;11.27;6.07;;;1.80;99.90;;;;;;4970854;28;20324;-90
2021/01/27 01:14:06;;;;;;;11.80;6.20;;;1.80;99.90;;;;;;4976542;28;20038;-88
2021/01/27 01:16:34;;;;;;;10.18;6.28;;;2.40;99.90;;;;;;4988444;28;20034;-88
2021/01/27 01:19:00;;;;;;;9.80;5.97;;;2.00;99.90;;;;;;4988317;28;20113;-87
2021/01/27 01:21:27;;;;;;;12.88;6.30;;;1.80;99.90;;;;;;4977740;28;20069;-89
2021/01/27 01:23:53;;;;;;;9.15;6.40;;;2.00;99.90;;;;;;4981067;28;20053;-89
2021/01/27 01:26:18;;;;;;;10.23;6.25;;;2.00;99.90;;;;;;4986543;28;20094;-89
2021/01/27 01:28:45;;;;;;;11.88;6.28;;;1.20;99.90;;;;;;4991424;28;20026;-89
2021/01/27 01:31:13;;;;;;;7.95;5.60;;;2.00;99.90;;;;;;4996810;28;20054;-88
2021/01/27 01:33:40;;;;;;;11.73;6.35;;;1.50;99.90;;;;;;4998175;28;20038;-89
2021/01/27 01:36:08;;;;;;;10.68;6.00;;;2.00;99.90;;;;;;4998034;28;20030;-90
2021/01/27 01:38:36;;;;;;;11.70;5.63;;;1.90;99.90;;;;;;4997967;28;20050;-90
2021/01/27 01:41:06;;;;;;;12.18;6.30;;;3.40;99.90;;;;;;4995897;28;20046;-90
2021/01/27 01:43:39;;;;;;;12.63;5.57;;;2.00;99.90;;;;;;4985529;28;20265;-90
2021/01/27 01:46:21;;;;;;;8.95;5.88;;;1.90;99.90;;;;;;4992514;28;20075;-90
2021/01/27 01:48:56;;;;;;;9.93;6.00;;;2.00;99.90;;;;;;4976596;28;20110;-90
2021/01/27 01:52:01;;;;;;;10.70;5.72;;;2.00;99.90;;;;;;4992410;28;20038;-89
2021/01/27 01:54:56;;;;;;;9.00;5.20;;;2.00;99.90;;;;;;4919765;29;20080;-89
2021/01/27 01:57:25;;;;;;;11.25;6.22;;;2.10;99.90;;;;;;4909522;29;20359;-88
2021/01/27 01:59:58;;;;;;;11.50;6.10;;;2.10;99.90;;;;;;4901309;29;20021;-88
2021/01/27 02:02:24;;;;;;;8.70;5.43;;;2.10;99.90;;;;;;4884959;29;20221;-88
2021/01/27 02:05:01;;;;;;;10.65;5.35;;;2.10;99.90;;;;;;4921929;29;20054;-88
2021/01/27 02:07:29;;;;;;;10.52;5.78;;;2.10;99.90;;;;;;4937156;29;20069;-88
2021/01/27 02:09:56;;;;;;;9.90;4.72;;;2.20;99.90;;;;;;4935100;29;20059;-88
2021/01/27 02:12:38;;;;;;;8.27;5.20;;;2.80;99.90;;;;;;4917421;29;20492;-87
2021/01/27 02:15:49;;;;;;;8.43;4.88;;;2.50;99.90;;;;;;4918480;29;20123;-88
2021/01/27 02:18:47;;;;;;;6.82;4.28;;;2.40;99.90;;;;;;4910911;29;20157;-88
2021/01/27 02:21:40;;;;;;;7.28;4.07;;;2.40;99.90;;;;;;4925365;29;20056;-88
2021/01/27 02:24:25;;;;;;;8.13;4.47;;;2.50;99.90;;;;;;4901522;29;20021;-89
2021/01/27 02:26:56;;;;;;;6.15;4.60;;;2.50;99.90;;;;;;4883724;29;20033;-89
2021/01/27 02:29:40;;;;;;;;;;;2.50;99.90;;;;;;4886344;29;20045;-89
2021/01/27 02:32:30;;;;;;;6.85;4.50;;;2.50;99.90;;;;;;4943045;29;20412;-89
2021/01/27 02:35:11;;;;;;;5.65;3.90;;;2.50;99.90;;;;;;4932752;29;20028;-88
2021/01/27 02:38:07;;;;;;;4.53;2.47;;;2.50;99.90;;;;;;4922418;29;20353;-87
2021/01/27 02:41:00;;;;;;;4.13;2.80;;;2.50;99.90;;;;;;4925526;29;20290;-88
2021/01/27 02:43:48;;;;;;;4.55;2.97;;;2.50;99.90;;;;;;4952612;29;20039;-89
2021/01/27 02:46:54;;;;;;;6.35;2.88;;;2.50;99.90;;;;;;4947269;29;20058;-88
2021/01/27 02:49:46;;;;;;;5.90;3.17;;;2.40;99.90;;;;;;4934028;29;20050;-88
2021/01/27 02:52:35;;;;;;;3.70;2.92;;;2.50;99.90;;;;;;4920123;29;20032;-90
2021/01/27 02:55:30;;;;;;;6.43;3.08;;;2.30;99.90;;;;;;4926408;28;20035;-90
2021/01/27 02:58:27;;;;;;;6.93;3.92;;;2.30;99.90;;;;;;4984301;28;20042;-90
2021/01/27 03:01:05;;;;;;;5.13;3.13;;;2.50;99.90;;;;;;4975934;28;20050;-89
2021/01/27 03:03:41;;;;;;;8.48;4.72;;;2.20;99.90;;;;;;4991089;28;20058;-89
2021/01/27 03:06:14;;;;;;;5.40;3.38;;;2.20;99.90;;;;;;4974242;28;20387;-89
2021/01/27 03:08:49;;;;;;;7.40;3.80;;;2.20;99.90;;;;;;4994961;28;20030;-88
2021/01/27 03:11:20;;;;;;;7.80;4.68;;;2.30;99.90;;;;;;4990513;28;20591;-88
2021/01/27 03:13:46;;;;;;;5.07;3.88;;;2.20;99.90;;;;;;4992632;28;20022;-86
2021/01/27 03:16:23;;;;;;;5.72;3.75;;;2.10;99.90;;;;;;4983337;28;20379;-88
2021/01/27 03:19:21;;;;;;;9.35;4.40;;;2.10;99.90;;;;;;5009787;28;20022;-91
2021/01/27 03:21:59;;;;;;;10.25;4.80;;;2.30;99.90;;;;;;4998085;28;20046;-89
2021/01/27 03:24:32;;;;;;;6.63;4.43;;;2.00;99.90;;;;;;4953326;29;20185;-88
2021/01/27 03:27:12;;;;;;;7.55;4.05;;;2.00;99.90;;;;;;4955393;29;20043;-89
2021/01/27 03:29:46;;;;;;;10.63;5.03;;;1.90;99.90;;;;;;4933642;29;20205;-89
2021/01/27 03:32:31;;;;;;;6.82;4.38;;;1.90;99.90;;;;;;4953698;29;20063;-89
2021/01/27 03:35:29;;;;;;;7.15;4.20;;;1.80;99.90;;;;;;4974556;28;20035;-89
2021/01/27 03:38:36;;;;;;;6.82;3.92;;;1.80;99.90;;;;;;4986567;28;20050;-89
2021/01/27 03:41:13;;;;;;;7.53;3.67;;;1.80;99.90;;;;;;4974765;29;20023;-89
2021/01/27 03:44:13;;;;;;;6.07;3.80;;;1.90;99.90;;;;;;4962490;28;20093;-89
2021/01/27 03:46:53;;;;;;;8.73;4.53;;;1.80;99.90;;;;;;4953160;29;20409;-89
2021/01/27 03:49:28;;;;;;;6.72;3.70;;;1.80;99.90;;;;;;4957100;28;20199;-88
2021/01/27 03:52:29;;;;;;;6.95;3.88;;;1.80;99.90;;;;;;4979808;28;20063;-88
2021/01/27 03:55:02;;;;;;;7.55;3.28;;;1.80;99.90;;;;;;4945889;29;20401;-90
2021/01/27 03:57:39;;;;;;;7.72;4.63;;;1.70;99.90;;;;;;4963028;28;20045;-89
2021/01/27 04:00:10;;;;;;;5.95;4.00;;;1.70;99.90;;;;;;4945320;28;20046;-89
2021/01/27 04:02:36;;;;;;;5.75;3.30;;;1.70;99.90;;;;;;4960446;29;20028;-88
2021/01/27 04:05:02;;;;;;;5.38;3.40;;;1.80;99.90;;;;;;4974300;29;20039;-87
2021/01/27 04:07:30;;;;;;;7.22;5.00;;;1.80;99.90;;;;;;4959756;29;20357;-89
2021/01/27 04:09:56;;;;;;;7.90;4.15;;;1.80;99.90;;;;;;4932749;29;20062;-89
2021/01/27 04:12:24;;;;;;;13.90;4.82;;;2.00;99.90;;;;;;4931534;29;20373;-90
2021/01/27 04:14:51;;;;;;;7.25;3.63;;;2.40;99.90;;;;;;4938303;29;20043;-88
2021/01/27 04:17:36;;;;;;;8.60;3.20;;;2.40;99.90;;;;;;4929360;29;20568;-89
2021/01/27 04:20:08;;;;;;;6.82;3.55;;;1.90;99.90;;;;;;4958133;29;20048;-89
2021/01/27 04:22:36;;;;;;;6.38;4.03;;;1.90;99.90;;;;;;4941334;29;20027;-87
2021/01/27 04:25:02;;;;;;;6.03;3.35;;;2.30;99.90;;;;;;4970910;28;20027;-89
2021/01/27 04:27:32;;;;;;;8.38;3.63;;;1.90;99.90;;;;;;4983868;28;20162;-88
2021/01/27 04:30:01;;;;;;;5.55;3.83;;;2.00;99.90;;;;;;4942736;29;20039;-88
2021/01/27 04:32:29;;;;;;;6.78;4.15;;;2.00;99.90;;;;;;4952308;29;20123;-87
2021/01/27 04:34:55;;;;;;;4.45;2.80;;;2.10;99.90;;;;;;4942643;29;20126;-89
2021/01/27 04:37:22;;;;;;;5.10;3.45;;;2.10;99.90;;;;;;4968096;28;20039;-90
2021/01/27 04:39:50;;;;;;;6.45;3.60;;;2.20;99.90;;;;;;4974428;28;20182;-89
2021/01/27 04:42:23;;;;;;;6.18;3.65;;;2.10;99.90;;;;;;4974708;29;20027;-88
2021/01/27 04:44:52;;;;;;;4.85;2.78;;;2.20;99.90;;;;;;4970158;28;20027;-90
2021/01/27 04:47:40;;;;;;;7.18;4.47;;;2.20;99.90;;;;;;4965332;28;20042;-88
2021/01/27 04:50:13;;;;;;;4.70;2.55;;;2.10;99.90;;;;;;5010189;28;20108;-89
2021/01/27 04:52:51;;;;;;;5.85;3.35;;;2.20;99.90;;;;;;5011152;28;20018;-89
2021/01/27 04:55:29;;;;;;;4.13;2.72;;;2.40;99.90;;;;;;4979325;28;20109;-88
2021/01/27 04:58:42;;;;;;;4.75;2.88;;;2.20;99.90;;;;;;4997565;28;20022;-89
2021/01/27 05:01:21;;;;;;;4.85;3.30;;;2.20;99.90;;;;;;4877039;29;20037;-89
2021/01/27 05:04:23;;;;;;;5.85;3.70;;;2.20;99.90;;;;;;4897364;29;20478;-89
2021/01/27 05:06:55;;;;;;;5.00;2.88;;;2.20;99.90;;;;;;4895032;29;20492;-89
2021/01/27 05:09:32;;;;;;;4.97;2.63;;;2.30;99.90;;;;;;4882679;29;20080;-89
2021/01/27 05:12:00;;;;;;;9.57;2.97;;;2.20;99.90;;;;;;4898621;29;20051;-89
2021/01/27 05:14:26;;;;;;;5.50;3.05;;;2.20;99.90;;;;;;4882629;29;20029;-88
2021/01/27 05:16:55;;;;;;;4.35;3.13;;;2.20;99.90;;;;;;4897321;29;20108;-89
2021/01/27 05:19:24;;;;;;;4.95;3.00;;;2.10;99.90;;;;;;4898009;29;20152;-88
2021/01/27 05:21:55;;;;;;;7.63;3.22;;;2.10;99.90;;;;;;4880885;29;20033;-88
2021/01/27 05:24:22;;;;;;;16.67;5.20;;;2.00;99.90;;;;;;4898322;29;20100;-89
2021/01/27 05:27:04;;;;;;;6.78;3.72;;;2.00;99.90;;;;;;4900681;29;20051;-89
2021/01/27 05:30:03;;;;;;;5.22;3.05;;;2.00;99.90;;;;;;4882493;29;20097;-89
2021/01/27 05:32:55;;;;;;;5.10;3.13;;;2.00;99.90;;;;;;4897384;29;20491;-88
2021/01/27 05:35:29;;;;;;;5.00;3.30;;;2.00;99.90;;;;;;4893129;29;20406;-88
2021/01/27 05:37:57;;;;;;;4.20;3.00;;;2.00;99.90;;;;;;4933171;28;20041;-89
2021/01/27 05:40:33;;;;;;;4.20;2.53;;;2.00;99.90;;;;;;5007895;28;20018;-89
2021/01/27 05:43:11;;;;;;;4.40;2.88;;;2.20;99.90;;;;;;5004333;28;20462;-88
2021/01/27 05:45:48;;;;;;;3.60;2.50;;;1.90;99.90;;;;;;4990142;28;20034;-89
2021/01/27 05:48:26;;;;;;;5.72;2.95;;;1.90;99.90;;;;;;5007084;28;20034;-88
2021/01/27 05:51:05;;;;;;;6.45;3.25;;;2.50;99.90;;;;;;5007612;28;20041;-88
2021/01/27 05:53:32;;;;;;;4.10;3.28;;;1.90;99.90;;;;;;4994759;28;20045;-88
2021/01/27 05:56:12;;;;;;;5.63;3.08;;;1.90;99.90;;;;;;4999742;28;20084;-89
2021/01/27 05:58:56;;;;;;;6.70;3.55;;;1.90;99.90;;;;;;5008363;28;20045;-89
2021/01/27 06:01:45;;;;;;;5.25;3.10;;;1.80;99.90;;;;;;4966966;28;20026;-89
2021/01/27 06:04:47;;;;;;;7.18;4.18;;;1.80;99.90;;;;;;5014423;28;20046;-89
2021/01/27 06:07:25;;;;;;;8.00;4.18;;;1.80;99.90;;;;;;5015876;28;20022;-90
2021/01/27 06:09:53;;;;;;;8.10;4.28;;;2.30;99.90;;;;;;4999769;28;20010;-87
2021/01/27 06:12:19;;;;;;;8.38;4.30;;;2.30;99.90;;;;;;4999573;28;20026;-88
2021/01/27 06:14:48;;;;;;;9.10;4.35;;;1.70;99.90;;;;;;4999498;28;20033;-88
2021/01/27 06:17:26;;;;;;;7.05;4.13;;;1.80;99.90;;;;;;4999284;28;20026;-89
2021/01/27 06:20:14;;;;;;;6.80;3.95;;;1.70;99.90;;;;;;4996452;28;20114;-88
2021/01/27 06:22:49;;;;;;;5.43;3.40;;;1.70;99.90;;;;;;4997960;28;20022;-88
2021/01/27 06:25:42;;;;;;;6.25;3.63;;;1.70;99.90;;;;;;5009435;28;20057;-88
2021/01/27 06:28:44;;;;;;;5.63;3.47;;;1.70;99.90;;;;;;4996455;28;20085;-89
2021/01/27 06:31:46;;;;;;;7.75;4.38;;;1.70;99.90;;;;;;5015664;28;20473;-90
2021/01/27 06:34:53;;;;;;;7.63;4.13;;;1.60;99.90;;;;;;4894382;29;20446;-89
2021/01/27 06:38:12;;;;;;;5.72;3.50;;;1.60;99.90;;;;;;4854092;29;20030;-88
2021/01/27 06:41:15;;;;;;;5.90;3.70;;;1.60;99.90;;;;;;4821204;29;20080;-88
2021/01/27 06:44:02;;;;;;;6.88;4.00;;;1.60;99.90;;;;;;4791819;29;20043;-89
2021/01/27 06:46:49;;;;;;;8.65;3.78;;;1.60;99.90;;;;;;4806447;29;20038;-88
2021/01/27 06:49:57;;;;;;;8.95;5.72;;;1.60;99.90;;;;;;4839625;29;20095;-88
2021/01/27 06:52:30;;;;;;;8.70;5.03;;;1.60;99.90;;;;;;4771789;29;20033;-89
2021/01/27 06:55:21;;;;;;;12.77;6.53;;;1.60;99.90;;;;;;4771884;29;20056;-88
2021/01/27 06:58:13;;;;;;;9.13;6.30;;;1.60;99.90;;;;;;4749616;30;20044;-88
2021/01/27 07:01:32;;;;;;;11.52;6.82;;;1.60;99.90;;;;;;4747415;30;20071;-90
2021/01/27 07:11:03;;;;;;;14.77;7.63;;;1.50;99.90;;;;;;4772542;29;20030;-91
2021/01/27 07:13:54;;;;;;;13.25;7.68;;;1.40;99.90;;;;;;4776435;29;20036;-91
2021/01/27 07:16:44;;;;;;;15.77;9.05;;;1.40;99.90;;;;;;4778639;29;20040;-94
2021/01/27 07:19:37;;;;;;;20.48;11.43;;;1.30;99.90;;;;;;4774570;30;20142;-93
2021/01/27 07:22:14;;;;;;;13.60;8.25;;;1.30;99.90;;;;;;4800099;30;20046;-91
2021/01/27 07:25:33;;;;;;;14.48;7.95;;;1.20;99.90;;;;;;4830877;29;20049;-93
2021/01/27 07:27:59;;;;;;;17.08;9.25;;;1.20;99.90;;;;;;4789819;29;20035;-90
2021/01/27 07:30:51;;;;;;;16.35;8.73;;;2.20;99.90;;;;;;4848245;29;20045;-88
2021/01/27 07:33:44;;;;;;;14.65;8.82;;;1.20;99.90;;;;;;4838324;29;20034;-90
2021/01/27 07:36:37;;;;;;;18.63;8.73;;;1.20;99.90;;;;;;4838418;29;20046;-91
2021/01/27 07:39:28;;;;;;;18.80;9.68;;;1.20;99.90;;;;;;4869342;29;20251;-89
2021/01/27 07:42:46;;;;;;;15.00;9.00;;;1.20;99.90;;;;;;4913434;29;20105;-90
2021/01/27 07:45:51;;;;;;;16.08;9.45;;;1.20;99.90;;;;;;4923498;28;20032;-90
2021/01/27 07:48:37;;;;;;;16.05;9.60;;;1.20;99.90;;;;;;4843995;29;20074;-89
2021/01/27 07:51:57;;;;;;;14.20;8.45;;;1.20;99.90;;;;;;4977019;28;20110;-90
2021/01/27 07:54:34;;;;;;;17.15;9.05;;;1.20;99.90;;;;;;4945843;28;20035;-90
2021/01/27 07:57:33;;;;;;;14.95;8.65;;;1.30;99.90;;;;;;4975895;28;20015;-89
2021/01/27 08:03:39;;;;;;;18.13;10.57;;;1.30;99.90;;;;;;5035524;23;20122;-89
2021/01/27 08:06:26;;;;;;;18.33;9.48;;;1.70;99.90;;;;;;5019252;28;20030;-94
2021/01/27 08:14:04;;;;;;;14.75;8.55;;;1.40;99.90;;;;;;4985606;28;20063;-93
2021/01/27 08:16:39;;;;;;;14.20;7.82;;;1.30;99.90;;;;;;4961843;28;20559;-92
2021/01/27 08:22:00;;;;;;;15.52;8.07;;;1.40;99.90;;;;;;4858493;29;20038;-90
2021/01/27 08:25:00;;;;;;;10.63;6.70;;;1.80;99.90;;;;;;4865681;29;20456;-92
2021/01/27 08:27:41;;;;;;;12.35;6.47;;;1.40;99.90;;;;;;4854208;29;20097;-91
2021/01/27 08:30:19;;;;;;;10.27;7.20;;;1.30;99.90;;;;;;4857419;29;20021;-90
2021/01/27 09:21:42;;;;;;;7.88;4.72;;;2.20;99.90;;;;;;5014138;28;20054;-91
2021/01/27 09:24:27;;;;;;;7.93;4.25;;;2.20;99.90;;;;;;5186774;23;20081;-91
2021/01/27 09:26:57;;;;;;;5.00;3.58;;;2.20;99.90;;;;;;4985961;28;20050;-92
2021/01/27 10:51:24;;;;;;;7.75;4.28;;;3.10;99.90;;;;;;6051235;23;20851;-94
2021/01/27 11:21:05;;;;;;;;;;;;;;;;;;;;;
2021/01/27 11:24:12;;;;;;;;;;;;;;;;;;;;;
2021/01/27 11:33:37;;;;;;;11.98;7.15;;;3.40;99.90;;;;;;4989531;28;20025;-89
2021/01/27 11:36:21;;;;;;;;;;;;;;;;;;;;;
2021/01/27 11:38:59;;;;;;;10.68;7.15;;;3.50;99.90;;;;;;4991181;28;20062;-92
2021/01/27 11:41:38;;;;;;;15.15;8.43;;;3.50;99.90;;;;;;4987224;28;20045;-90
2021/01/27 11:44:09;;;;;;;11.20;7.53;;;3.40;99.90;;;;;;4995223;28;20079;-91
2021/01/27 11:46:49;;;;;;;10.73;7.72;;;3.50;99.90;;;;;;4986165;28;20026;-93
2021/01/27 11:49:18;;;;;;;12.43;7.50;;;3.50;99.90;;;;;;4951489;28;20452;-91
2021/01/27 11:52:08;;;;;;;10.45;6.50;;;3.60;99.90;;;;;;4974710;28;20110;-93
2021/01/27 11:54:39;;;;;;;9.07;6.38;;;3.60;99.90;;;;;;4989873;28;20193;-91
2021/01/27 11:57:14;;;;;;;;;;;3.60;99.90;;;;;;4971789;28;20026;-92
2021/01/27 11:59:45;;;;;;;11.15;6.25;;;3.60;99.90;;;;;;4967393;28;20300;-90
2021/01/27 12:05:44;;;;;;;12.63;6.97;;;3.70;99.90;;;;;;4999292;28;20103;-92
2021/01/27 12:08:11;;;;;;;10.20;7.13;;;3.70;99.90;;;;;;4982971;28;20025;-86
2021/01/27 12:10:40;;;;;;;9.52;6.80;;;3.70;99.90;;;;;;4966325;28;20047;-88
2021/01/27 12:13:06;;;;;;;10.30;7.40;;;3.70;99.90;;;;;;4979714;28;20041;-91
2021/01/27 12:15:32;;;;;;;11.45;7.65;;;3.80;99.90;;;;;;4987835;28;20046;-89
2021/01/27 16:07:24;;;;;;;12.60;8.57;;;4.90;99.90;;;;;;5266867;23;20043;-89
2021/01/27 16:09:50;;;;;;;14.80;9.07;;;4.80;99.90;;;;;;4942257;29;20035;-92
2021/01/27 16:12:30;;;;;;;11.98;8.02;;;4.80;99.90;;;;;;4932004;29;20989;-92
2021/01/27 16:16:05;;;;;;;11.02;8.07;;;4.90;99.90;;;;;;4951015;29;20031;-91
2021/01/27 16:18:36;;;;;;;11.93;8.77;;;4.80;99.90;;;;;;4954214;28;20030;-90
2021/01/27 16:24:30;;;;;;;12.35;8.98;;;4.70;99.90;;;;;;4964134;29;20031;-91
2021/01/27 16:26:59;;;;;;;13.98;8.95;;;4.90;99.90;;;;;;5099800;23;20071;-90
2021/01/27 16:29:31;;;;;;;16.75;9.77;;;4.80;99.90;;;;;;4918707;29;20032;-90
2021/01/27 16:35:18;;;;;;;15.70;10.18;;;4.90;99.90;;;;;;5511817;23;19929;-89
2021/01/27 16:37:45;;;;;;;15.13;10.13;;;4.90;99.90;;;;;;4932860;29;20032;-87
2021/01/27 16:40:18;;;;;;;13.88;9.90;;;4.90;99.90;;;;;;4913794;29;20051;-87
2021/01/27 16:42:55;;;;;;;14.80;9.63;;;4.90;99.90;;;;;;4932208;29;20028;-90
2021/01/27 16:45:28;;;;;;;14.10;10.27;;;4.80;99.90;;;;;;4909606;29;20358;-87
2021/01/27 16:47:56;;;;;;;15.32;10.52;;;4.90;99.90;;;;;;4947523;23;20044;-90
2021/01/27 16:50:26;;;;;;;17.00;9.88;;;4.90;99.90;;;;;;4922436;29;20034;-86
2021/01/27 16:52:54;;;;;;;13.90;9.18;;;4.90;99.90;;;;;;4888639;29;20028;-90
2021/01/27 16:55:34;;;;;;;18.08;10.45;;;4.90;99.90;;;;;;4900358;29;20057;-89
2021/01/27 16:58:09;;;;;;;15.43;10.07;;;4.90;99.90;;;;;;4914220;29;20036;-90
2021/01/27 17:00:40;;;;;;;14.60;10.00;;;4.90;99.90;;;;;;4929850;29;20114;-90
2021/01/27 17:03:13;;;;;;;16.80;10.13;;;5.20;99.90;;;;;;4894936;29;20036;-90
2021/01/27 17:05:44;;;;;;;24.00;10.35;;;4.90;99.90;;;;;;4911220;29;20493;-89
2021/01/27 17:08:11;;;;;;;13.48;9.95;;;4.90;99.90;;;;;;4901806;29;20366;-87
2021/01/27 17:10:37;;;;;;;18.42;11.27;;;4.90;99.90;;;;;;4901807;29;20372;-87
2021/01/27 17:13:15;;;;;;;17.45;11.57;;;5.00;99.90;;;;;;4891305;29;20032;-85
2021/01/27 17:15:46;;;;;;;19.58;11.98;;;4.90;99.90;;;;;;4924673;28;20037;-87
2021/01/27 17:18:13;;;;;;;18.35;11.40;;;5.00;99.90;;;;;;4914399;29;20056;-88
2021/01/27 17:20:45;;;;;;;16.20;10.63;;;5.00;99.90;;;;;;4906529;29;20158;-92
2021/01/27 17:23:13;;;;;;;20.55;12.45;;;4.90;99.90;;;;;;4888170;29;20044;-95
2021/01/27 17:25:45;;;;;;;21.27;12.98;;;4.90;99.90;;;;;;4885388;29;20034;-94
2021/01/27 17:28:11;;;;;;;23.80;14.40;;;4.40;99.90;;;;;;4860765;29;20048;-93
2021/01/27 17:30:47;;;;;;;24.08;13.60;;;5.00;99.90;;;;;;4872870;29;20025;-85
2021/01/27 17:33:44;;;;;;;22.10;13.77;;;5.00;99.90;;;;;;4865405;29;20037;-88
2021/01/27 17:36:12;;;;;;;23.17;12.95;;;5.00;99.90;;;;;;4851587;29;20058;-86
2021/01/27 17:38:41;;;;;;;20.65;12.98;;;5.00;99.90;;;;;;4856503;29;20052;-88
2021/01/27 17:41:09;;;;;;;21.73;12.80;;;5.00;99.90;;;;;;4861852;29;20140;-86
2021/01/27 17:43:39;;;;;;;28.88;17.27;;;5.10;99.90;;;;;;4834502;29;20026;-86
2021/01/27 17:46:08;;;;;;;24.08;14.20;;;5.10;99.90;;;;;;4847192;29;20072;-87
2021/01/27 17:48:34;;;;;;;25.27;14.63;;;5.10;99.90;;;;;;4840105;29;20066;-87
2021/01/27 17:50:59;;;;;;;27.17;16.15;;;5.00;99.90;;;;;;4848282;29;20045;-87
2021/01/27 17:53:28;;;;;;;25.23;15.27;;;5.10;99.90;;;;;;4885595;29;20044;-87
2021/01/27 17:55:56;;;;;;;25.08;15.00;;;5.10;99.90;;;;;;4884907;29;20117;-88
2021/01/27 17:58:28;;;;;;;21.58;13.35;;;5.10;99.90;;;;;;4886531;29;20051;-87
2021/01/27 18:00:57;;;;;;;24.25;14.93;;;4.90;99.90;;;;;;4878152;29;20036;-88
2021/01/27 18:03:31;;;;;;;26.48;14.98;;;5.20;99.90;;;;;;4904921;29;20365;-87
2021/01/27 18:06:02;;;;;;;25.05;15.88;;;5.10;99.90;;;;;;4907753;29;20111;-87
2021/01/27 18:08:34;;;;;;;36.07;18.57;;;5.10;99.90;;;;;;4908381;29;20406;-87
2021/01/27 18:11:00;;;;;;;29.60;17.05;;;5.60;99.90;;;;;;4910233;29;20024;-87
2021/01/27 18:13:31;;;;;;;27.05;17.02;;;5.10;99.90;;;;;;4934421;29;20024;-85
2021/01/27 18:15:57;;;;;;;29.13;17.27;;;5.10;99.90;;;;;;4947741;29;20020;-87
2021/01/27 18:18:26;;;;;;;30.08;17.08;;;5.20;99.90;;;;;;4914135;29;20032;-86
2021/01/27 18:20:52;;;;;;;26.90;16.33;;;5.10;99.90;;;;;;4940054;28;20080;-88
2021/01/27 18:24:03;;;;;;;27.42;15.93;;;5.10;99.90;;;;;;4923407;28;20021;-88
2021/01/27 18:26:29;;;;;;;32.40;16.83;;;5.10;99.90;;;;;;4923132;28;20121;-88
2021/01/27 18:28:55;;;;;;;35.10;17.30;;;5.10;99.90;;;;;;4939439;28;20038;-87
2021/01/27 18:31:23;;;;;;;33.47;18.25;;;5.10;99.90;;;;;;4921911;28;20027;-86
2021/01/27 18:33:53;;;;;;;30.40;19.05;;;5.10;99.90;;;;;;4938803;28;20012;-89
2021/01/27 18:36:20;;;;;;;30.33;16.73;;;5.10;99.90;;;;;;4922810;28;20044;-92
2021/01/27 18:38:54;;;;;;;35.22;18.88;;;4.80;99.90;;;;;;4922460;29;20036;-92
2021/01/27 18:41:20;;;;;;;32.17;17.08;;;5.10;99.90;;;;;;4926350;29;20047;-87
2021/01/27 18:43:45;;;;;;;55.65;18.98;;;5.10;99.90;;;;;;4957024;28;20059;-88
2021/01/27 18:46:11;;;;;;;30.15;18.52;;;5.10;99.90;;;;;;4934009;28;20044;-88
2021/01/27 18:48:42;;;;;;;32.75;18.67;;;5.10;99.90;;;;;;4928195;29;20040;-87
2021/01/27 18:51:19;;;;;;;31.70;18.85;;;5.10;99.90;;;;;;4905303;29;20034;-89
2021/01/27 18:53:46;;;;;;;32.78;18.27;;;5.10;99.90;;;;;;4925314;29;20129;-89
2021/01/27 18:56:12;;;;;;;33.88;18.33;;;5.10;99.90;;;;;;4925209;29;20142;-88
2021/01/27 18:58:38;;;;;;;38.25;19.35;;;5.10;99.90;;;;;;4924284;29;20074;-90
2021/01/27 19:01:05;;;;;;;33.58;18.17;;;5.10;99.90;;;;;;4938970;29;20453;-91
2021/01/27 19:03:33;;;;;;;37.95;19.27;;;5.20;99.90;;;;;;4913561;29;20036;-90
2021/01/27 19:06:04;;;;;;;35.35;17.85;;;5.20;99.90;;;;;;4927621;29;20143;-90
2021/01/27 19:08:34;;;;;;;34.40;18.77;;;5.10;99.90;;;;;;4892558;29;20489;-90
2021/01/27 19:11:00;;;;;;;42.95;21.42;;;5.10;99.90;;;;;;4906518;29;20032;-89
2021/01/27 19:13:29;;;;;;;32.58;18.17;;;5.10;99.90;;;;;;4906465;29;20028;-89
2021/01/27 19:15:59;;;;;;;36.40;19.65;;;5.10;99.90;;;;;;4891426;29;20134;-88
2021/01/27 19:18:26;;;;;;;33.88;19.27;;;5.00;99.90;;;;;;4912706;29;20070;-88
2021/01/27 19:20:54;;;;;;;37.42;21.10;;;5.00;99.90;;;;;;4907279;29;20038;-88
2021/01/27 19:23:20;;;;;;;32.92;18.50;;;5.00;99.90;;;;;;4889877;29;20427;-88
2021/01/27 19:25:49;;;;;;;37.20;19.05;;;4.90;99.90;;;;;;4915108;29;20035;-88
2021/01/27 19:28:15;;;;;;;32.53;18.38;;;4.90;99.90;;;;;;4926294;29;20036;-89
2021/01/27 19:30:43;;;;;;;33.15;19.02;;;4.80;99.90;;;;;;4944180;29;20079;-87
2021/01/27 19:33:11;;;;;;;36.10;19.02;;;4.80;99.90;;;;;;4928063;29;20027;-86
2021/01/27 19:35:45;;;;;;;34.92;20.40;;;4.80;99.90;;;;;;4926247;29;20046;-88
2021/01/27 19:38:57;;;;;;;35.75;19.52;;;4.90;99.90;;;;;;4908664;29;20024;-87
2021/01/27 19:44:44;;;;;;;41.03;20.33;;;4.90;99.90;;;;;;4879041;29;19907;-88
2021/01/27 19:47:11;;;;;;;39.55;21.70;;;4.00;99.90;;;;;;4863139;29;20108;-87
2021/01/27 19:49:39;;;;;;;46.38;20.48;;;4.80;99.90;;;;;;4878956;29;20029;-88
2021/01/27 19:52:06;;;;;;;36.08;20.50;;;4.80;99.90;;;;;;4865001;29;20041;-90
2021/01/27 19:54:32;;;;;;;37.70;20.93;;;4.80;99.90;;;;;;4847599;29;20038;-87
2021/01/27 19:57:09;;;;;;;43.22;21.65;;;4.80;99.90;;;;;;4871963;29;20577;-87
2021/01/27 19:59:36;;;;;;;39.78;22.52;;;4.70;99.90;;;;;;4876041;29;20041;-88
2021/01/27 20:02:05;;;;;;;43.15;23.55;;;4.70;99.90;;;;;;4847638;29;20033;-88
2021/01/27 20:04:38;;;;;;;42.30;21.85;;;4.70;99.90;;;;;;4899379;29;20024;-88
2021/01/27 20:07:27;;;;;;;52.20;24.23;;;4.70;99.90;;;;;;4873728;29;20037;-86
2021/01/27 20:16:54;;;;;;;46.75;23.38;;;4.70;99.90;;;;;;4878894;29;20049;-85
2021/01/27 20:23:46;;;;;;;;;;;;;;;;;;;;;
2021/01/27 20:27:03;;;;;;;45.08;23.60;;;4.80;99.90;;;;;;4902787;29;20068;-86
2021/01/27 20:29:39;;;;;;;48.70;24.77;;;4.90;99.90;;;;;;4912285;29;20044;-87
2021/01/27 20:32:16;;;;;;;46.92;24.77;;;4.90;99.90;;;;;;4914380;29;20039;-87
2021/01/27 20:34:42;;;;;;;42.42;23.63;;;4.90;99.90;;;;;;4900712;29;20051;-87
2021/01/27 20:37:12;;;;;;;51.15;24.15;;;5.00;99.90;;;;;;4894064;29;20113;-87
2021/01/27 20:39:38;;;;;;;46.60;24.77;;;5.00;99.90;;;;;;4888984;29;20073;-88
2021/01/27 20:42:04;;;;;;;55.25;26.70;;;5.00;99.90;;;;;;4898467;29;20052;-88
2021/01/27 20:44:41;;;;;;;47.72;26.85;;;5.00;99.90;;;;;;4902396;29;20031;-87
2021/01/27 20:50:38;;;;;;;46.58;23.80;;;5.00;99.90;;;;;;4826521;29;20087;-91
2021/01/27 20:53:17;;;;;;;43.80;22.63;;;5.00;99.90;;;;;;4842510;29;20056;-89
2021/01/27 20:55:46;;;;;;;51.88;22.65;;;5.10;99.90;;;;;;4838891;29;20042;-85
2021/01/27 20:58:14;;;;;;;51.97;24.08;;;5.20;99.90;;;;;;4838819;29;20054;-87
2021/01/27 21:00:52;;;;;;;49.90;22.67;;;5.10;99.90;;;;;;4819839;29;20027;-86